Aviation Digital Data Service (ADDS)

Output produced by METARs form (0403 UTC 29 July 2016)
found at http://aviationweather.gov/adds/metars/
 
KBTV 282336Z 2900/2924 01004KT P6SM BKN110 
     TEMPO 2907/2910 4SM BR SCT020 
     FM291700 34005KT P6SM SCT110